sensor_id;sensor_type;location;lat;lon;timestamp;P1;P2;P0
68698;PMS7003;55680;48.850;2.310;2023-05-07T00:00:43;0.00;0.00;0.00
68698;PMS7003;55680;48.850;2.310;2023-05-07T00:03:09;0.00;0.00;0.00
68698;PMS7003;55680;48.850;2.310;2023-05-07T00:05:34;0.00;0.00;0.00
68698;PMS7003;55680;48.850;2.310;2023-05-07T00:08:00;0.00;0.00;0.00
68698;PMS7003;55680;48.850;2.310;2023-05-07T00:10:25;0.50;0.50;0.00
68698;PMS7003;55680;48.850;2.310;2023-05-07T00:12:51;1.50;1.00;0.00
68698;PMS7003;55680;48.850;2.310;2023-05-07T00:15:16;0.25;0.25;0.00
68698;PMS7003;55680;48.850;2.310;2023-05-07T00:17:41;0.00;0.00;0.00
68698;PMS7003;55680;48.850;2.310;2023-05-07T00:20:07;0.00;0.00;0.00
68698;PMS7003;55680;48.850;2.310;2023-05-07T00:22:33;0.00;0.00;0.00
68698;PMS7003;55680;48.850;2.310;2023-05-07T00:24:58;0.00;0.00;0.00
68698;PMS7003;55680;48.850;2.310;2023-05-07T00:27:24;0.50;0.50;0.00
68698;PMS7003;55680;48.850;2.310;2023-05-07T00:29:49;0.00;0.00;0.00
68698;PMS7003;55680;48.850;2.310;2023-05-07T00:32:15;0.00;0.00;0.00
68698;PMS7003;55680;48.850;2.310;2023-05-07T00:34:40;1.00;0.00;0.00
68698;PMS7003;55680;48.850;2.310;2023-05-07T00:37:06;0.00;0.00;0.00
68698;PMS7003;55680;48.850;2.310;2023-05-07T00:39:34;0.50;0.50;0.50
68698;PMS7003;55680;48.850;2.310;2023-05-07T00:42:00;0.75;0.75;0.00
68698;PMS7003;55680;48.850;2.310;2023-05-07T00:44:26;1.00;1.00;0.00
68698;PMS7003;55680;48.850;2.310;2023-05-07T00:46:51;0.25;0.25;0.25
68698;PMS7003;55680;48.850;2.310;2023-05-07T00:49:17;0.00;0.00;0.00
68698;PMS7003;55680;48.850;2.310;2023-05-07T00:51:43;0.00;0.00;0.00
68698;PMS7003;55680;48.850;2.310;2023-05-07T00:54:09;0.00;0.00;0.00
68698;PMS7003;55680;48.850;2.310;2023-05-07T00:56:34;0.00;0.00;0.00
68698;PMS7003;55680;48.850;2.310;2023-05-07T00:59:01;0.00;0.00;0.00
68698;PMS7003;55680;48.850;2.310;2023-05-07T01:01:26;0.00;0.00;0.00
68698;PMS7003;55680;48.850;2.310;2023-05-07T01:03:52;0.00;0.00;0.00
68698;PMS7003;55680;48.850;2.310;2023-05-07T01:06:18;0.00;0.00;0.00
68698;PMS7003;55680;48.850;2.310;2023-05-07T01:08:43;0.00;0.00;0.00
68698;PMS7003;55680;48.850;2.310;2023-05-07T01:11:09;0.00;0.00;0.00
68698;PMS7003;55680;48.850;2.310;2023-05-07T01:13:35;0.00;0.00;0.00
68698;PMS7003;55680;48.850;2.310;2023-05-07T01:16:01;0.00;0.00;0.00
68698;PMS7003;55680;48.850;2.310;2023-05-07T01:18:27;0.00;0.00;0.00
68698;PMS7003;55680;48.850;2.310;2023-05-07T01:20:55;0.75;0.00;0.00
68698;PMS7003;55680;48.850;2.310;2023-05-07T01:23:22;0.00;0.00;0.00
68698;PMS7003;55680;48.850;2.310;2023-05-07T01:25:54;0.00;0.00;0.00
68698;PMS7003;55680;48.850;2.310;2023-05-07T01:28:20;0.00;0.00;0.00
68698;PMS7003;55680;48.850;2.310;2023-05-07T01:30:54;0.00;0.00;0.00
68698;PMS7003;55680;48.850;2.310;2023-05-07T01:33:23;0.75;0.00;0.00
68698;PMS7003;55680;48.850;2.310;2023-05-07T01:35:51;0.00;0.00;0.00
68698;PMS7003;55680;48.850;2.310;2023-05-07T01:38:18;0.00;0.00;0.00
68698;PMS7003;55680;48.850;2.310;2023-05-07T01:40:44;0.00;0.00;0.00
68698;PMS7003;55680;48.850;2.310;2023-05-07T01:43:09;0.00;0.00;0.00
68698;PMS7003;55680;48.850;2.310;2023-05-07T01:45:35;0.00;0.00;0.00
68698;PMS7003;55680;48.850;2.310;2023-05-07T01:48:01;0.00;0.00;0.00
68698;PMS7003;55680;48.850;2.310;2023-05-07T01:50:27;0.00;0.00;0.00
68698;PMS7003;55680;48.850;2.310;2023-05-07T01:52:53;0.00;0.00;0.00
68698;PMS7003;55680;48.850;2.310;2023-05-07T01:55:19;0.00;0.00;0.00
68698;PMS7003;55680;48.850;2.310;2023-05-07T01:57:44;0.00;0.00;0.00
68698;PMS7003;55680;48.850;2.310;2023-05-07T02:00:10;0.00;0.00;0.00
68698;PMS7003;55680;48.850;2.310;2023-05-07T02:02:35;0.00;0.00;0.00
68698;PMS7003;55680;48.850;2.310;2023-05-07T02:05:01;0.00;0.00;0.00
68698;PMS7003;55680;48.850;2.310;2023-05-07T02:07:26;0.00;0.00;0.00
68698;PMS7003;55680;48.850;2.310;2023-05-07T02:09:52;0.00;0.00;0.00
68698;PMS7003;55680;48.850;2.310;2023-05-07T02:12:18;0.00;0.00;0.00
68698;PMS7003;55680;48.850;2.310;2023-05-07T02:14:44;0.00;0.00;0.00
68698;PMS7003;55680;48.850;2.310;2023-05-07T02:17:09;0.00;0.00;0.00
68698;PMS7003;55680;48.850;2.310;2023-05-07T02:19:34;0.00;0.00;0.00
68698;PMS7003;55680;48.850;2.310;2023-05-07T02:22:00;0.75;0.00;0.00
68698;PMS7003;55680;48.850;2.310;2023-05-07T02:24:25;0.00;0.00;0.00
68698;PMS7003;55680;48.850;2.310;2023-05-07T02:26:51;0.00;0.00;0.00
68698;PMS7003;55680;48.850;2.310;2023-05-07T02:29:16;0.00;0.00;0.00
68698;PMS7003;55680;48.850;2.310;2023-05-07T02:31:41;0.00;0.00;0.00
68698;PMS7003;55680;48.850;2.310;2023-05-07T02:34:07;0.00;0.00;0.00
68698;PMS7003;55680;48.850;2.310;2023-05-07T02:36:32;0.00;0.00;0.00
68698;PMS7003;55680;48.850;2.310;2023-05-07T02:38:58;0.00;0.00;0.00
68698;PMS7003;55680;48.850;2.310;2023-05-07T02:41:23;0.00;0.00;0.00
68698;PMS7003;55680;48.850;2.310;2023-05-07T02:43:49;0.00;0.00;0.00
68698;PMS7003;55680;48.850;2.310;2023-05-07T02:46:14;0.00;0.00;0.00
68698;PMS7003;55680;48.850;2.310;2023-05-07T02:48:40;0.00;0.00;0.00
68698;PMS7003;55680;48.850;2.310;2023-05-07T02:51:06;0.00;0.00;0.00
68698;PMS7003;55680;48.850;2.310;2023-05-07T02:53:31;0.00;0.00;0.00
68698;PMS7003;55680;48.850;2.310;2023-05-07T02:55:57;0.00;0.00;0.00
68698;PMS7003;55680;48.850;2.310;2023-05-07T02:58:23;0.00;0.00;0.00
68698;PMS7003;55680;48.850;2.310;2023-05-07T03:00:49;0.00;0.00;0.00
68698;PMS7003;55680;48.850;2.310;2023-05-07T03:03:15;0.00;0.00;0.00
68698;PMS7003;55680;48.850;2.310;2023-05-07T03:05:40;0.00;0.00;0.00
68698;PMS7003;55680;48.850;2.310;2023-05-07T03:08:06;0.00;0.00;0.00
68698;PMS7003;55680;48.850;2.310;2023-05-07T03:10:32;0.00;0.00;0.00
68698;PMS7003;55680;48.850;2.310;2023-05-07T03:12:57;0.00;0.00;0.00
68698;PMS7003;55680;48.850;2.310;2023-05-07T03:15:22;0.00;0.00;0.00
68698;PMS7003;55680;48.850;2.310;2023-05-07T03:17:48;0.00;0.00;0.00
68698;PMS7003;55680;48.850;2.310;2023-05-07T03:20:13;0.00;0.00;0.00
68698;PMS7003;55680;48.850;2.310;2023-05-07T03:22:39;0.00;0.00;0.00
68698;PMS7003;55680;48.850;2.310;2023-05-07T03:25:06;0.00;0.00;0.00
68698;PMS7003;55680;48.850;2.310;2023-05-07T03:27:32;0.00;0.00;0.00
68698;PMS7003;55680;48.850;2.310;2023-05-07T03:29:57;0.00;0.00;0.00
68698;PMS7003;55680;48.850;2.310;2023-05-07T03:32:23;0.00;0.00;0.00
68698;PMS7003;55680;48.850;2.310;2023-05-07T03:34:48;0.00;0.00;0.00
68698;PMS7003;55680;48.850;2.310;2023-05-07T03:37:13;0.00;0.00;0.00
68698;PMS7003;55680;48.850;2.310;2023-05-07T03:39:39;0.00;0.00;0.00
68698;PMS7003;55680;48.850;2.310;2023-05-07T03:42:04;0.00;0.00;0.00
68698;PMS7003;55680;48.850;2.310;2023-05-07T03:44:30;0.00;0.00;0.00
68698;PMS7003;55680;48.850;2.310;2023-05-07T03:46:55;0.25;0.00;0.00
68698;PMS7003;55680;48.850;2.310;2023-05-07T03:49:21;0.00;0.00;0.00
68698;PMS7003;55680;48.850;2.310;2023-05-07T03:51:46;0.00;0.00;0.00
68698;PMS7003;55680;48.850;2.310;2023-05-07T03:54:11;0.00;0.00;0.00
68698;PMS7003;55680;48.850;2.310;2023-05-07T03:56:37;0.00;0.00;0.00
68698;PMS7003;55680;48.850;2.310;2023-05-07T03:59:02;1.00;0.00;0.00
68698;PMS7003;55680;48.850;2.310;2023-05-07T04:01:28;0.75;0.00;0.00
68698;PMS7003;55680;48.850;2.310;2023-05-07T04:03:53;0.00;0.00;0.00
68698;PMS7003;55680;48.850;2.310;2023-05-07T04:06:18;0.00;0.00;0.00
68698;PMS7003;55680;48.850;2.310;2023-05-07T04:08:44;1.25;0.00;0.00
68698;PMS7003;55680;48.850;2.310;2023-05-07T04:11:09;0.00;0.00;0.00
68698;PMS7003;55680;48.850;2.310;2023-05-07T04:13:34;0.00;0.00;0.00
68698;PMS7003;55680;48.850;2.310;2023-05-07T04:16:01;0.00;0.00;0.00
68698;PMS7003;55680;48.850;2.310;2023-05-07T04:18:27;0.75;0.00;0.00
68698;PMS7003;55680;48.850;2.310;2023-05-07T04:20:53;0.00;0.00;0.00
68698;PMS7003;55680;48.850;2.310;2023-05-07T04:23:18;0.00;0.00;0.00
68698;PMS7003;55680;48.850;2.310;2023-05-07T04:25:44;0.00;0.00;0.00
68698;PMS7003;55680;48.850;2.310;2023-05-07T04:28:10;0.00;0.00;0.00
68698;PMS7003;55680;48.850;2.310;2023-05-07T04:30:36;0.00;0.00;0.00
68698;PMS7003;55680;48.850;2.310;2023-05-07T04:33:01;0.00;0.00;0.00
68698;PMS7003;55680;48.850;2.310;2023-05-07T04:35:26;0.00;0.00;0.00
68698;PMS7003;55680;48.850;2.310;2023-05-07T04:37:52;0.00;0.00;0.00
68698;PMS7003;55680;48.850;2.310;2023-05-07T04:40:17;0.00;0.00;0.00
68698;PMS7003;55680;48.850;2.310;2023-05-07T04:42:42;0.00;0.00;0.00
68698;PMS7003;55680;48.850;2.310;2023-05-07T04:45:08;0.00;0.00;0.00
68698;PMS7003;55680;48.850;2.310;2023-05-07T04:47:35;0.00;0.00;0.00
68698;PMS7003;55680;48.850;2.310;2023-05-07T04:50:00;0.00;0.00;0.00
68698;PMS7003;55680;48.850;2.310;2023-05-07T04:52:26;0.00;0.00;0.00
68698;PMS7003;55680;48.850;2.310;2023-05-07T04:54:51;0.00;0.00;0.00
68698;PMS7003;55680;48.850;2.310;2023-05-07T04:57:17;0.50;0.00;0.00
68698;PMS7003;55680;48.850;2.310;2023-05-07T04:59:42;0.00;0.00;0.00
68698;PMS7003;55680;48.850;2.310;2023-05-07T05:02:09;0.00;0.00;0.00
68698;PMS7003;55680;48.850;2.310;2023-05-07T05:04:35;0.00;0.00;0.00
68698;PMS7003;55680;48.850;2.310;2023-05-07T05:07:01;0.00;0.00;0.00
68698;PMS7003;55680;48.850;2.310;2023-05-07T05:09:28;0.00;0.00;0.00
68698;PMS7003;55680;48.850;2.310;2023-05-07T05:11:53;0.00;0.00;0.00
68698;PMS7003;55680;48.850;2.310;2023-05-07T05:14:19;0.00;0.00;0.00
68698;PMS7003;55680;48.850;2.310;2023-05-07T05:16:44;0.00;0.00;0.00
68698;PMS7003;55680;48.850;2.310;2023-05-07T05:19:10;1.00;0.00;0.00
68698;PMS7003;55680;48.850;2.310;2023-05-07T05:21:35;0.00;0.00;0.00
68698;PMS7003;55680;48.850;2.310;2023-05-07T05:24:00;1.00;0.00;0.00
68698;PMS7003;55680;48.850;2.310;2023-05-07T05:26:26;0.00;0.00;0.00
68698;PMS7003;55680;48.850;2.310;2023-05-07T05:28:51;0.00;0.00;0.00
68698;PMS7003;55680;48.850;2.310;2023-05-07T05:31:16;0.00;0.00;0.00
68698;PMS7003;55680;48.850;2.310;2023-05-07T05:33:42;0.75;0.00;0.00
68698;PMS7003;55680;48.850;2.310;2023-05-07T05:36:10;0.50;0.00;0.00
68698;PMS7003;55680;48.850;2.310;2023-05-07T05:38:37;0.00;0.00;0.00
68698;PMS7003;55680;48.850;2.310;2023-05-07T05:41:02;0.00;0.00;0.00
68698;PMS7003;55680;48.850;2.310;2023-05-07T05:43:28;0.00;0.00;0.00
68698;PMS7003;55680;48.850;2.310;2023-05-07T05:45:55;0.00;0.00;0.00
68698;PMS7003;55680;48.850;2.310;2023-05-07T05:48:20;0.00;0.00;0.00
68698;PMS7003;55680;48.850;2.310;2023-05-07T05:50:46;0.00;0.00;0.00
68698;PMS7003;55680;48.850;2.310;2023-05-07T05:53:11;0.00;0.00;0.00
68698;PMS7003;55680;48.850;2.310;2023-05-07T05:55:37;0.00;0.00;0.00
68698;PMS7003;55680;48.850;2.310;2023-05-07T05:58:02;0.00;0.00;0.00
68698;PMS7003;55680;48.850;2.310;2023-05-07T06:00:28;0.00;0.00;0.00
68698;PMS7003;55680;48.850;2.310;2023-05-07T06:02:54;0.00;0.00;0.00
68698;PMS7003;55680;48.850;2.310;2023-05-07T06:05:19;0.25;0.00;0.00
68698;PMS7003;55680;48.850;2.310;2023-05-07T06:07:45;0.00;0.00;0.00
68698;PMS7003;55680;48.850;2.310;2023-05-07T06:10:10;0.00;0.00;0.00
68698;PMS7003;55680;48.850;2.310;2023-05-07T06:12:35;0.00;0.00;0.00
68698;PMS7003;55680;48.850;2.310;2023-05-07T06:15:01;0.50;0.00;0.00
68698;PMS7003;55680;48.850;2.310;2023-05-07T06:17:26;0.00;0.00;0.00
68698;PMS7003;55680;48.850;2.310;2023-05-07T06:19:52;0.00;0.00;0.00
68698;PMS7003;55680;48.850;2.310;2023-05-07T06:22:17;0.00;0.00;0.00
68698;PMS7003;55680;48.850;2.310;2023-05-07T06:24:43;0.00;0.00;0.00
68698;PMS7003;55680;48.850;2.310;2023-05-07T06:27:08;0.00;0.00;0.00
68698;PMS7003;55680;48.850;2.310;2023-05-07T06:29:34;0.00;0.00;0.00
68698;PMS7003;55680;48.850;2.310;2023-05-07T06:32:06;0.00;0.00;0.00
68698;PMS7003;55680;48.850;2.310;2023-05-07T06:34:35;0.00;0.00;0.00
68698;PMS7003;55680;48.850;2.310;2023-05-07T06:37:00;0.00;0.00;0.00
68698;PMS7003;55680;48.850;2.310;2023-05-07T06:39:26;0.00;0.00;0.00
68698;PMS7003;55680;48.850;2.310;2023-05-07T06:41:51;0.00;0.00;0.00
68698;PMS7003;55680;48.850;2.310;2023-05-07T06:44:17;0.00;0.00;0.00
68698;PMS7003;55680;48.850;2.310;2023-05-07T06:46:42;0.00;0.00;0.00
68698;PMS7003;55680;48.850;2.310;2023-05-07T06:49:07;0.00;0.00;0.00
68698;PMS7003;55680;48.850;2.310;2023-05-07T06:51:33;0.00;0.00;0.00
68698;PMS7003;55680;48.850;2.310;2023-05-07T06:53:58;1.00;1.00;0.00
68698;PMS7003;55680;48.850;2.310;2023-05-07T06:56:24;0.00;0.00;0.00
68698;PMS7003;55680;48.850;2.310;2023-05-07T06:58:49;0.00;0.00;0.00
68698;PMS7003;55680;48.850;2.310;2023-05-07T07:01:15;0.00;0.00;0.00
68698;PMS7003;55680;48.850;2.310;2023-05-07T07:03:40;1.00;0.00;0.00
68698;PMS7003;55680;48.850;2.310;2023-05-07T07:06:06;0.00;0.00;0.00
68698;PMS7003;55680;48.850;2.310;2023-05-07T07:08:31;0.00;0.00;0.00
68698;PMS7003;55680;48.850;2.310;2023-05-07T07:10:57;0.00;0.00;0.00
68698;PMS7003;55680;48.850;2.310;2023-05-07T07:13:22;0.50;0.00;0.00
68698;PMS7003;55680;48.850;2.310;2023-05-07T07:15:47;0.00;0.00;0.00
68698;PMS7003;55680;48.850;2.310;2023-05-07T07:18:13;0.00;0.00;0.00
68698;PMS7003;55680;48.850;2.310;2023-05-07T07:20:38;0.00;0.00;0.00
68698;PMS7003;55680;48.850;2.310;2023-05-07T07:23:03;0.00;0.00;0.00
68698;PMS7003;55680;48.850;2.310;2023-05-07T07:25:29;0.00;0.00;0.00
68698;PMS7003;55680;48.850;2.310;2023-05-07T07:27:54;0.00;0.00;0.00
68698;PMS7003;55680;48.850;2.310;2023-05-07T07:30:20;0.00;0.00;0.00
68698;PMS7003;55680;48.850;2.310;2023-05-07T07:32:45;0.75;0.00;0.00
68698;PMS7003;55680;48.850;2.310;2023-05-07T07:35:10;0.00;0.00;0.00
68698;PMS7003;55680;48.850;2.310;2023-05-07T07:37:36;0.00;0.00;0.00
68698;PMS7003;55680;48.850;2.310;2023-05-07T07:40:01;0.00;0.00;0.00
68698;PMS7003;55680;48.850;2.310;2023-05-07T07:42:28;0.00;0.00;0.00
68698;PMS7003;55680;48.850;2.310;2023-05-07T07:44:54;0.00;0.00;0.00
68698;PMS7003;55680;48.850;2.310;2023-05-07T07:47:19;0.00;0.00;0.00
68698;PMS7003;55680;48.850;2.310;2023-05-07T07:49:45;0.00;0.00;0.00
68698;PMS7003;55680;48.850;2.310;2023-05-07T07:52:10;0.00;0.00;0.00
68698;PMS7003;55680;48.850;2.310;2023-05-07T07:54:35;0.00;0.00;0.00
68698;PMS7003;55680;48.850;2.310;2023-05-07T07:57:01;0.00;0.00;0.00
68698;PMS7003;55680;48.850;2.310;2023-05-07T07:59:26;0.00;0.00;0.00
68698;PMS7003;55680;48.850;2.310;2023-05-07T08:01:52;0.25;0.00;0.00
68698;PMS7003;55680;48.850;2.310;2023-05-07T08:04:20;0.50;0.00;0.00
68698;PMS7003;55680;48.850;2.310;2023-05-07T08:06:46;1.00;0.00;0.00
68698;PMS7003;55680;48.850;2.310;2023-05-07T08:09:11;0.00;0.00;0.00
68698;PMS7003;55680;48.850;2.310;2023-05-07T08:11:37;0.00;0.00;0.00
68698;PMS7003;55680;48.850;2.310;2023-05-07T08:14:03;0.50;0.50;0.00
68698;PMS7003;55680;48.850;2.310;2023-05-07T08:16:28;0.50;0.50;0.00
68698;PMS7003;55680;48.850;2.310;2023-05-07T08:18:54;0.00;0.00;0.00
68698;PMS7003;55680;48.850;2.310;2023-05-07T08:21:19;0.00;0.00;0.00
68698;PMS7003;55680;48.850;2.310;2023-05-07T08:23:45;0.00;0.00;0.00
68698;PMS7003;55680;48.850;2.310;2023-05-07T08:26:10;0.00;0.00;0.00
68698;PMS7003;55680;48.850;2.310;2023-05-07T08:28:36;0.25;0.25;0.00
68698;PMS7003;55680;48.850;2.310;2023-05-07T08:31:01;0.75;0.75;0.00
68698;PMS7003;55680;48.850;2.310;2023-05-07T08:33:27;0.00;0.00;0.00
68698;PMS7003;55680;48.850;2.310;2023-05-07T08:35:52;0.00;0.00;0.00
68698;PMS7003;55680;48.850;2.310;2023-05-07T08:38:17;0.00;0.00;0.00
68698;PMS7003;55680;48.850;2.310;2023-05-07T08:40:43;0.00;0.00;0.00
68698;PMS7003;55680;48.850;2.310;2023-05-07T08:43:08;1.00;0.25;0.00
68698;PMS7003;55680;48.850;2.310;2023-05-07T08:45:37;0.00;0.00;0.00
68698;PMS7003;55680;48.850;2.310;2023-05-07T08:48:05;0.25;0.25;0.25
68698;PMS7003;55680;48.850;2.310;2023-05-07T08:50:35;0.00;0.00;0.00
68698;PMS7003;55680;48.850;2.310;2023-05-07T08:53:02;0.00;0.00;0.00
68698;PMS7003;55680;48.850;2.310;2023-05-07T08:55:28;0.00;0.00;0.00
68698;PMS7003;55680;48.850;2.310;2023-05-07T08:57:53;0.50;0.50;0.00
68698;PMS7003;55680;48.850;2.310;2023-05-07T09:00:19;0.00;0.00;0.00
68698;PMS7003;55680;48.850;2.310;2023-05-07T09:02:45;0.00;0.00;0.00
68698;PMS7003;55680;48.850;2.310;2023-05-07T09:05:10;0.50;0.50;0.50
68698;PMS7003;55680;48.850;2.310;2023-05-07T09:07:35;0.00;0.00;0.00
68698;PMS7003;55680;48.850;2.310;2023-05-07T09:10:02;0.00;0.00;0.00
68698;PMS7003;55680;48.850;2.310;2023-05-07T09:12:29;0.00;0.00;0.00
68698;PMS7003;55680;48.850;2.310;2023-05-07T09:14:54;0.00;0.00;0.00
68698;PMS7003;55680;48.850;2.310;2023-05-07T09:17:19;0.00;0.00;0.00
68698;PMS7003;55680;48.850;2.310;2023-05-07T09:19:45;0.00;0.00;0.00
68698;PMS7003;55680;48.850;2.310;2023-05-07T09:22:11;1.75;0.00;0.00
68698;PMS7003;55680;48.850;2.310;2023-05-07T09:24:37;0.00;0.00;0.00
68698;PMS7003;55680;48.850;2.310;2023-05-07T09:27:06;0.00;0.00;0.00
68698;PMS7003;55680;48.850;2.310;2023-05-07T09:29:31;0.50;0.50;0.00
68698;PMS7003;55680;48.850;2.310;2023-05-07T09:32:03;0.25;0.00;0.00
68698;PMS7003;55680;48.850;2.310;2023-05-07T09:34:32;0.50;0.50;0.00
68698;PMS7003;55680;48.850;2.310;2023-05-07T09:36:58;0.00;0.00;0.00
68698;PMS7003;55680;48.850;2.310;2023-05-07T09:39:25;0.00;0.00;0.00
68698;PMS7003;55680;48.850;2.310;2023-05-07T09:41:50;0.00;0.00;0.00
68698;PMS7003;55680;48.850;2.310;2023-05-07T09:44:19;0.00;0.00;0.00
68698;PMS7003;55680;48.850;2.310;2023-05-07T09:46:45;1.00;0.00;0.00
68698;PMS7003;55680;48.850;2.310;2023-05-07T09:49:16;0.00;0.00;0.00
68698;PMS7003;55680;48.850;2.310;2023-05-07T09:51:48;0.75;0.75;0.00
68698;PMS7003;55680;48.850;2.310;2023-05-07T09:54:15;0.00;0.00;0.00
68698;PMS7003;55680;48.850;2.310;2023-05-07T09:56:41;0.25;0.25;0.00
68698;PMS7003;55680;48.850;2.310;2023-05-07T09:59:08;0.75;0.75;0.75
68698;PMS7003;55680;48.850;2.310;2023-05-07T10:01:36;1.75;0.75;0.00
68698;PMS7003;55680;48.850;2.310;2023-05-07T10:04:02;0.75;0.75;0.75
68698;PMS7003;55680;48.850;2.310;2023-05-07T10:06:29;0.00;0.00;0.00
68698;PMS7003;55680;48.850;2.310;2023-05-07T10:08:55;1.00;1.00;0.00
68698;PMS7003;55680;48.850;2.310;2023-05-07T10:11:21;0.00;0.00;0.00
68698;PMS7003;55680;48.850;2.310;2023-05-07T10:13:47;0.75;0.75;0.00
68698;PMS7003;55680;48.850;2.310;2023-05-07T10:16:13;0.75;0.75;0.50
68698;PMS7003;55680;48.850;2.310;2023-05-07T10:18:38;1.25;1.25;0.25
68698;PMS7003;55680;48.850;2.310;2023-05-07T10:21:13;0.50;0.50;0.00
68698;PMS7003;55680;48.850;2.310;2023-05-07T10:23:45;0.75;0.75;0.50
68698;PMS7003;55680;48.850;2.310;2023-05-07T10:26:11;0.75;0.75;0.75
68698;PMS7003;55680;48.850;2.310;2023-05-07T10:28:38;1.75;1.75;0.75
68698;PMS7003;55680;48.850;2.310;2023-05-07T10:33:31;0.75;0.75;0.00
68698;PMS7003;55680;48.850;2.310;2023-05-07T10:35:59;0.75;0.75;0.75
68698;PMS7003;55680;48.850;2.310;2023-05-07T10:38:26;0.75;0.75;0.75
68698;PMS7003;55680;48.850;2.310;2023-05-07T10:40:52;0.50;0.00;0.00
68698;PMS7003;55680;48.850;2.310;2023-05-07T10:43:18;0.00;0.00;0.00
68698;PMS7003;55680;48.850;2.310;2023-05-07T10:45:43;0.00;0.00;0.00
68698;PMS7003;55680;48.850;2.310;2023-05-07T10:48:10;0.75;0.75;0.75
68698;PMS7003;55680;48.850;2.310;2023-05-07T10:50:39;0.50;0.50;0.00
68698;PMS7003;55680;48.850;2.310;2023-05-07T10:55:47;0.75;0.75;0.75
68698;PMS7003;55680;48.850;2.310;2023-05-07T11:00:58;0.75;0.75;0.25
68698;PMS7003;55680;48.850;2.310;2023-05-07T11:03:25;1.00;1.00;1.00
68698;PMS7003;55680;48.850;2.310;2023-05-07T11:11:33;0.75;0.75;0.50
68698;PMS7003;55680;48.850;2.310;2023-05-07T11:14:11;1.75;1.75;1.75
68698;PMS7003;55680;48.850;2.310;2023-05-07T11:16:38;1.00;1.00;1.00
68698;PMS7003;55680;48.850;2.310;2023-05-07T11:19:04;1.50;1.50;1.00
68698;PMS7003;55680;48.850;2.310;2023-05-07T11:24:02;1.25;1.25;0.50
68698;PMS7003;55680;48.850;2.310;2023-05-07T11:26:29;3.00;2.00;1.75
68698;PMS7003;55680;48.850;2.310;2023-05-07T11:28:56;2.00;2.00;1.75
68698;PMS7003;55680;48.850;2.310;2023-05-07T11:31:23;1.00;1.00;0.25
68698;PMS7003;55680;48.850;2.310;2023-05-07T11:33:51;3.25;2.00;1.50
68698;PMS7003;55680;48.850;2.310;2023-05-07T11:36:16;2.00;1.00;0.75
68698;PMS7003;55680;48.850;2.310;2023-05-07T11:38:43;3.50;3.00;2.00
68698;PMS7003;55680;48.850;2.310;2023-05-07T11:41:08;2.75;2.75;1.50
68698;PMS7003;55680;48.850;2.310;2023-05-07T11:43:33;2.50;2.00;1.50
68698;PMS7003;55680;48.850;2.310;2023-05-07T11:46:10;3.50;1.50;1.50
68698;PMS7003;55680;48.850;2.310;2023-05-07T11:48:36;2.00;2.00;1.50
68698;PMS7003;55680;48.850;2.310;2023-05-07T11:51:03;2.00;2.00;1.00
68698;PMS7003;55680;48.850;2.310;2023-05-07T11:53:36;1.00;1.00;1.00
68698;PMS7003;55680;48.850;2.310;2023-05-07T11:56:06;3.00;3.00;2.00
68698;PMS7003;55680;48.850;2.310;2023-05-07T11:58:33;5.25;4.25;3.50
68698;PMS7003;55680;48.850;2.310;2023-05-07T12:00:58;3.75;3.75;2.75
68698;PMS7003;55680;48.850;2.310;2023-05-07T12:03:24;1.75;1.75;0.75
68698;PMS7003;55680;48.850;2.310;2023-05-07T12:05:49;3.75;3.75;2.75
68698;PMS7003;55680;48.850;2.310;2023-05-07T12:08:15;2.50;2.50;2.00
68698;PMS7003;55680;48.850;2.310;2023-05-07T12:10:41;2.25;2.00;1.50
68698;PMS7003;55680;48.850;2.310;2023-05-07T12:15:46;4.75;3.50;3.50
68698;PMS7003;55680;48.850;2.310;2023-05-07T12:18:11;3.00;2.00;1.50
68698;PMS7003;55680;48.850;2.310;2023-05-07T12:20:37;2.75;1.75;1.25
68698;PMS7003;55680;48.850;2.310;2023-05-07T12:23:03;1.75;1.75;1.00
68698;PMS7003;55680;48.850;2.310;2023-05-07T12:25:35;2.00;2.00;1.50
68698;PMS7003;55680;48.850;2.310;2023-05-07T12:28:01;1.00;1.00;1.00
68698;PMS7003;55680;48.850;2.310;2023-05-07T12:30:28;1.00;1.00;0.50
68698;PMS7003;55680;48.850;2.310;2023-05-07T12:32:54;2.00;2.00;1.75
68698;PMS7003;55680;48.850;2.310;2023-05-07T12:35:26;2.00;2.00;2.00
68698;PMS7003;55680;48.850;2.310;2023-05-07T12:37:59;1.00;1.00;0.75
68698;PMS7003;55680;48.850;2.310;2023-05-07T12:41:02;1.75;1.75;1.50
68698;PMS7003;55680;48.850;2.310;2023-05-07T12:43:21;2.75;2.00;1.75
68698;PMS7003;55680;48.850;2.310;2023-05-07T12:45:50;2.00;2.00;1.25
68698;PMS7003;55680;48.850;2.310;2023-05-07T12:48:16;1.25;1.00;1.00
68698;PMS7003;55680;48.850;2.310;2023-05-07T12:50:42;1.75;0.75;0.25
68698;PMS7003;55680;48.850;2.310;2023-05-07T12:53:09;3.25;1.50;1.50
68698;PMS7003;55680;48.850;2.310;2023-05-07T12:55:48;3.00;1.25;1.25
68698;PMS7003;55680;48.850;2.310;2023-05-07T13:00:42;4.25;2.75;1.75
68698;PMS7003;55680;48.850;2.310;2023-05-07T13:03:08;3.50;1.00;1.00
68698;PMS7003;55680;48.850;2.310;2023-05-07T13:05:34;2.50;1.50;1.50
68698;PMS7003;55680;48.850;2.310;2023-05-07T13:07:59;3.00;2.50;1.50
68698;PMS7003;55680;48.850;2.310;2023-05-07T13:10:25;2.50;2.50;2.25
68698;PMS7003;55680;48.850;2.310;2023-05-07T13:12:51;1.50;1.50;1.00
68698;PMS7003;55680;48.850;2.310;2023-05-07T13:15:17;2.25;2.00;1.50
68698;PMS7003;55680;48.850;2.310;2023-05-07T13:17:43;2.00;2.00;1.00
68698;PMS7003;55680;48.850;2.310;2023-05-07T13:20:11;2.25;2.25;2.25
68698;PMS7003;55680;48.850;2.310;2023-05-07T13:22:37;1.75;1.75;1.75
68698;PMS7003;55680;48.850;2.310;2023-05-07T13:25:03;5.50;3.75;2.00
68698;PMS7003;55680;48.850;2.310;2023-05-07T13:27:29;3.25;2.25;1.50
68698;PMS7003;55680;48.850;2.310;2023-05-07T13:29:55;2.50;2.50;1.75
68698;PMS7003;55680;48.850;2.310;2023-05-07T13:32:21;3.75;3.75;2.75
68698;PMS7003;55680;48.850;2.310;2023-05-07T13:34:46;2.50;2.50;1.75
68698;PMS7003;55680;48.850;2.310;2023-05-07T13:37:12;2.00;1.75;1.75
68698;PMS7003;55680;48.850;2.310;2023-05-07T13:39:37;4.00;3.00;2.50
68698;PMS7003;55680;48.850;2.310;2023-05-07T13:42:02;4.00;4.00;2.25
68698;PMS7003;55680;48.850;2.310;2023-05-07T13:44:28;2.25;2.00;1.25
68698;PMS7003;55680;48.850;2.310;2023-05-07T13:46:53;1.00;1.00;1.00
68698;PMS7003;55680;48.850;2.310;2023-05-07T13:49:19;1.75;1.50;1.00
68698;PMS7003;55680;48.850;2.310;2023-05-07T13:51:44;1.00;1.00;1.00
68698;PMS7003;55680;48.850;2.310;2023-05-07T13:54:10;0.75;0.75;0.50
68698;PMS7003;55680;48.850;2.310;2023-05-07T13:56:35;0.50;0.50;0.00
68698;PMS7003;55680;48.850;2.310;2023-05-07T13:59:01;0.00;0.00;0.00
68698;PMS7003;55680;48.850;2.310;2023-05-07T14:01:27;1.75;1.00;0.50
68698;PMS7003;55680;48.850;2.310;2023-05-07T14:03:52;1.75;0.75;0.75
68698;PMS7003;55680;48.850;2.310;2023-05-07T14:06:17;1.25;1.25;0.50
68698;PMS7003;55680;48.850;2.310;2023-05-07T14:08:43;2.00;2.00;1.50
68698;PMS7003;55680;48.850;2.310;2023-05-07T14:11:08;1.75;1.75;1.50
68698;PMS7003;55680;48.850;2.310;2023-05-07T14:13:33;3.50;2.50;2.00
68698;PMS7003;55680;48.850;2.310;2023-05-07T14:15:59;3.00;3.00;2.25
68698;PMS7003;55680;48.850;2.310;2023-05-07T14:18:25;3.00;3.00;2.00
68698;PMS7003;55680;48.850;2.310;2023-05-07T14:20:51;2.00;2.00;1.00
68698;PMS7003;55680;48.850;2.310;2023-05-07T14:23:16;2.25;2.25;1.00
68698;PMS7003;55680;48.850;2.310;2023-05-07T14:25:44;4.75;4.00;3.00
68698;PMS7003;55680;48.850;2.310;2023-05-07T14:28:11;3.75;3.75;2.75
68698;PMS7003;55680;48.850;2.310;2023-05-07T14:30:36;3.00;3.00;2.00
68698;PMS7003;55680;48.850;2.310;2023-05-07T14:33:01;2.75;1.25;1.00
68698;PMS7003;55680;48.850;2.310;2023-05-07T14:35:27;5.75;3.50;3.00
68698;PMS7003;55680;48.850;2.310;2023-05-07T14:37:52;5.50;4.75;2.75